Kingaroy, Australia
Current Conditions -  °F | °C
As of 2:00 PM on Sunday 21 Dec 2014 (Local Time) from YBOK Reporting Station
Scattered Clouds Scattered Clouds  
Wind Chill: 82°   Ceiling: Unl
Heat Index: 83°   Visibility: 6mi
Dew Point: 63°   Wind: 7mph
Humidity: 51%   Direction: 40°NE
Pressure: 30"   Gusts: NA
Location:  26.54°S, 151.84°E
Report Text: YBOK 210400Z AUTO 04006KT 9999 // SCT047 SCT072 28/17 Q1016
Loading
Personal Weather Stations






























Interactive Weather Map New forecast layout! Learn more

10-Day Weather Forecast

Advertisements
Track Severe Weather on mobile